sensor_id;sensor_type;location;lat;lon;timestamp;P1;durP1;ratioP1;P2;durP2;ratioP2
31836;SDS011;18401;49.344;6.240;2023-11-21T00:02:20;5.18;;;3.38;;
31836;SDS011;18401;49.344;6.240;2023-11-21T00:04:47;7.50;;;3.05;;
31836;SDS011;18401;49.344;6.240;2023-11-21T00:07:13;3.97;;;2.78;;
31836;SDS011;18401;49.344;6.240;2023-11-21T00:09:39;3.17;;;2.22;;
31836;SDS011;18401;49.344;6.240;2023-11-21T00:12:06;3.72;;;2.88;;
31836;SDS011;18401;49.344;6.240;2023-11-21T00:14:35;6.28;;;2.58;;
31836;SDS011;18401;49.344;6.240;2023-11-21T00:17:01;5.22;;;2.78;;
31836;SDS011;18401;49.344;6.240;2023-11-21T00:19:27;4.82;;;2.80;;
31836;SDS011;18401;49.344;6.240;2023-11-21T00:21:53;2.90;;;2.45;;
31836;SDS011;18401;49.344;6.240;2023-11-21T00:24:19;8.15;;;4.10;;
31836;SDS011;18401;49.344;6.240;2023-11-21T00:26:44;6.38;;;4.28;;
31836;SDS011;18401;49.344;6.240;2023-11-21T00:29:10;5.55;;;3.53;;
31836;SDS011;18401;49.344;6.240;2023-11-21T00:31:35;6.22;;;4.20;;
31836;SDS011;18401;49.344;6.240;2023-11-21T00:34:04;4.90;;;3.60;;
31836;SDS011;18401;49.344;6.240;2023-11-21T00:36:31;10.40;;;3.65;;
31836;SDS011;18401;49.344;6.240;2023-11-21T00:38:57;5.32;;;3.50;;
31836;SDS011;18401;49.344;6.240;2023-11-21T00:41:24;4.30;;;3.33;;
31836;SDS011;18401;49.344;6.240;2023-11-21T00:43:52;5.32;;;3.30;;
31836;SDS011;18401;49.344;6.240;2023-11-21T00:46:18;4.45;;;2.70;;
31836;SDS011;18401;49.344;6.240;2023-11-21T00:48:44;6.68;;;3.05;;
31836;SDS011;18401;49.344;6.240;2023-11-21T00:51:10;8.57;;;2.97;;
31836;SDS011;18401;49.344;6.240;2023-11-21T00:53:35;5.25;;;3.38;;
31836;SDS011;18401;49.344;6.240;2023-11-21T00:56:01;3.72;;;2.85;;
31836;SDS011;18401;49.344;6.240;2023-11-21T00:58:27;5.25;;;3.38;;
31836;SDS011;18401;49.344;6.240;2023-11-21T01:00:53;4.25;;;3.20;;
31836;SDS011;18401;49.344;6.240;2023-11-21T01:03:19;4.55;;;3.42;;
31836;SDS011;18401;49.344;6.240;2023-11-21T01:05:45;4.60;;;3.08;;
31836;SDS011;18401;49.344;6.240;2023-11-21T01:08:11;4.18;;;3.05;;
31836;SDS011;18401;49.344;6.240;2023-11-21T01:10:36;5.90;;;3.15;;
31836;SDS011;18401;49.344;6.240;2023-11-21T01:13:02;5.20;;;3.17;;
31836;SDS011;18401;49.344;6.240;2023-11-21T01:15:32;6.45;;;2.97;;
31836;SDS011;18401;49.344;6.240;2023-11-21T01:18:00;4.55;;;3.17;;
31836;SDS011;18401;49.344;6.240;2023-11-21T01:20:26;6.07;;;3.05;;
31836;SDS011;18401;49.344;6.240;2023-11-21T01:22:51;6.45;;;3.67;;
31836;SDS011;18401;49.344;6.240;2023-11-21T01:25:18;3.92;;;3.35;;
31836;SDS011;18401;49.344;6.240;2023-11-21T01:27:46;4.97;;;3.50;;
31836;SDS011;18401;49.344;6.240;2023-11-21T01:30:11;9.95;;;3.63;;
31836;SDS011;18401;49.344;6.240;2023-11-21T01:32:38;7.70;;;4.13;;
31836;SDS011;18401;49.344;6.240;2023-11-21T01:35:04;5.72;;;4.13;;
31836;SDS011;18401;49.344;6.240;2023-11-21T01:37:31;6.88;;;3.47;;
31836;SDS011;18401;49.344;6.240;2023-11-21T01:39:58;4.50;;;3.25;;
31836;SDS011;18401;49.344;6.240;2023-11-21T01:42:24;7.85;;;3.50;;
31836;SDS011;18401;49.344;6.240;2023-11-21T01:44:49;6.13;;;3.58;;
31836;SDS011;18401;49.344;6.240;2023-11-21T01:47:15;8.20;;;3.78;;
31836;SDS011;18401;49.344;6.240;2023-11-21T01:49:44;8.73;;;3.70;;
31836;SDS011;18401;49.344;6.240;2023-11-21T01:52:11;5.43;;;3.08;;
31836;SDS011;18401;49.344;6.240;2023-11-21T01:54:38;8.52;;;3.53;;
31836;SDS011;18401;49.344;6.240;2023-11-21T01:57:04;7.38;;;4.25;;
31836;SDS011;18401;49.344;6.240;2023-11-21T01:59:34;6.35;;;3.50;;
31836;SDS011;18401;49.344;6.240;2023-11-21T02:02:06;4.78;;;3.00;;
31836;SDS011;18401;49.344;6.240;2023-11-21T02:04:32;6.22;;;3.40;;
31836;SDS011;18401;49.344;6.240;2023-11-21T02:06:59;7.03;;;2.45;;
31836;SDS011;18401;49.344;6.240;2023-11-21T02:09:28;3.97;;;2.28;;
31836;SDS011;18401;49.344;6.240;2023-11-21T02:11:58;3.60;;;2.33;;
31836;SDS011;18401;49.344;6.240;2023-11-21T02:14:24;4.00;;;2.05;;
31836;SDS011;18401;49.344;6.240;2023-11-21T02:16:51;3.88;;;2.10;;
31836;SDS011;18401;49.344;6.240;2023-11-21T02:19:18;3.67;;;2.00;;
31836;SDS011;18401;49.344;6.240;2023-11-21T02:21:47;3.42;;;1.95;;
31836;SDS011;18401;49.344;6.240;2023-11-21T02:24:15;5.88;;;1.65;;
31836;SDS011;18401;49.344;6.240;2023-11-21T02:26:42;3.50;;;2.00;;
31836;SDS011;18401;49.344;6.240;2023-11-21T02:29:08;1.95;;;1.75;;
31836;SDS011;18401;49.344;6.240;2023-11-21T02:31:37;2.28;;;1.30;;
31836;SDS011;18401;49.344;6.240;2023-11-21T02:34:10;2.47;;;1.70;;
31836;SDS011;18401;49.344;6.240;2023-11-21T02:36:38;1.83;;;1.42;;
31836;SDS011;18401;49.344;6.240;2023-11-21T02:39:04;2.47;;;1.63;;
31836;SDS011;18401;49.344;6.240;2023-11-21T02:41:29;2.88;;;1.90;;
31836;SDS011;18401;49.344;6.240;2023-11-21T02:43:55;6.47;;;1.90;;
31836;SDS011;18401;49.344;6.240;2023-11-21T02:46:21;1.92;;;1.70;;
31836;SDS011;18401;49.344;6.240;2023-11-21T02:48:47;3.13;;;1.92;;
31836;SDS011;18401;49.344;6.240;2023-11-21T02:51:12;3.53;;;1.75;;
31836;SDS011;18401;49.344;6.240;2023-11-21T02:53:38;6.43;;;2.00;;
31836;SDS011;18401;49.344;6.240;2023-11-21T02:56:04;4.47;;;2.35;;
31836;SDS011;18401;49.344;6.240;2023-11-21T02:58:30;3.92;;;2.22;;
31836;SDS011;18401;49.344;6.240;2023-11-21T03:00:55;3.92;;;1.83;;
31836;SDS011;18401;49.344;6.240;2023-11-21T03:03:21;6.10;;;2.40;;
31836;SDS011;18401;49.344;6.240;2023-11-21T03:05:49;4.45;;;2.42;;
31836;SDS011;18401;49.344;6.240;2023-11-21T03:08:15;6.03;;;2.80;;
31836;SDS011;18401;49.344;6.240;2023-11-21T03:10:41;6.65;;;3.08;;
31836;SDS011;18401;49.344;6.240;2023-11-21T03:13:06;6.18;;;2.63;;
31836;SDS011;18401;49.344;6.240;2023-11-21T03:15:32;4.65;;;2.50;;
31836;SDS011;18401;49.344;6.240;2023-11-21T03:17:58;5.88;;;2.22;;
31836;SDS011;18401;49.344;6.240;2023-11-21T03:20:23;4.55;;;2.22;;
31836;SDS011;18401;49.344;6.240;2023-11-21T03:22:49;4.07;;;2.13;;
31836;SDS011;18401;49.344;6.240;2023-11-21T03:25:15;3.97;;;1.92;;
31836;SDS011;18401;49.344;6.240;2023-11-21T03:27:42;3.60;;;2.13;;
31836;SDS011;18401;49.344;6.240;2023-11-21T03:30:09;3.10;;;1.98;;
31836;SDS011;18401;49.344;6.240;2023-11-21T03:32:36;2.10;;;1.65;;
31836;SDS011;18401;49.344;6.240;2023-11-21T03:35:01;2.78;;;2.25;;
31836;SDS011;18401;49.344;6.240;2023-11-21T03:37:28;7.38;;;1.65;;
31836;SDS011;18401;49.344;6.240;2023-11-21T03:39:54;2.15;;;1.65;;
31836;SDS011;18401;49.344;6.240;2023-11-21T03:42:21;2.05;;;1.73;;
31836;SDS011;18401;49.344;6.240;2023-11-21T03:44:47;2.75;;;2.05;;
31836;SDS011;18401;49.344;6.240;2023-11-21T03:47:12;3.67;;;2.10;;
31836;SDS011;18401;49.344;6.240;2023-11-21T03:49:38;6.13;;;3.03;;
31836;SDS011;18401;49.344;6.240;2023-11-21T03:52:04;5.40;;;2.97;;
31836;SDS011;18401;49.344;6.240;2023-11-21T03:54:30;5.38;;;2.75;;
31836;SDS011;18401;49.344;6.240;2023-11-21T03:56:55;5.05;;;3.33;;
31836;SDS011;18401;49.344;6.240;2023-11-21T03:59:21;8.27;;;3.70;;
31836;SDS011;18401;49.344;6.240;2023-11-21T04:01:49;12.75;;;10.50;;
31836;SDS011;18401;49.344;6.240;2023-11-21T04:04:15;9.20;;;4.10;;
31836;SDS011;18401;49.344;6.240;2023-11-21T04:06:41;7.60;;;3.63;;
31836;SDS011;18401;49.344;6.240;2023-11-21T04:09:06;8.13;;;4.20;;
31836;SDS011;18401;49.344;6.240;2023-11-21T04:11:32;6.65;;;4.10;;
31836;SDS011;18401;49.344;6.240;2023-11-21T04:13:58;8.60;;;4.50;;
31836;SDS011;18401;49.344;6.240;2023-11-21T04:16:24;10.00;;;4.53;;
31836;SDS011;18401;49.344;6.240;2023-11-21T04:18:49;7.03;;;4.05;;
31836;SDS011;18401;49.344;6.240;2023-11-21T19:38:27;11.23;;;6.38;;
31836;SDS011;18401;49.344;6.240;2023-11-21T19:40:53;12.02;;;6.88;;
31836;SDS011;18401;49.344;6.240;2023-11-21T19:43:19;13.52;;;7.50;;
31836;SDS011;18401;49.344;6.240;2023-11-21T19:45:45;17.08;;;8.35;;
31836;SDS011;18401;49.344;6.240;2023-11-21T19:48:12;20.88;;;8.35;;
31836;SDS011;18401;49.344;6.240;2023-11-21T19:50:37;18.27;;;8.27;;
31836;SDS011;18401;49.344;6.240;2023-11-21T19:53:03;16.35;;;9.02;;
31836;SDS011;18401;49.344;6.240;2023-11-21T19:55:29;15.57;;;8.60;;
31836;SDS011;18401;49.344;6.240;2023-11-21T19:57:54;14.55;;;7.85;;
31836;SDS011;18401;49.344;6.240;2023-11-21T20:00:20;18.33;;;9.25;;
31836;SDS011;18401;49.344;6.240;2023-11-21T20:02:45;14.07;;;8.13;;
31836;SDS011;18401;49.344;6.240;2023-11-21T20:05:12;14.18;;;6.88;;
31836;SDS011;18401;49.344;6.240;2023-11-21T20:07:40;9.38;;;5.80;;
31836;SDS011;18401;49.344;6.240;2023-11-21T20:10:07;15.15;;;7.47;;
31836;SDS011;18401;49.344;6.240;2023-11-21T20:12:33;13.73;;;6.60;;
31836;SDS011;18401;49.344;6.240;2023-11-21T20:14:59;20.88;;;7.32;;
31836;SDS011;18401;49.344;6.240;2023-11-21T20:17:25;16.40;;;7.65;;
31836;SDS011;18401;49.344;6.240;2023-11-21T20:19:52;18.63;;;8.85;;
31836;SDS011;18401;49.344;6.240;2023-11-21T20:22:18;22.33;;;8.73;;
31836;SDS011;18401;49.344;6.240;2023-11-21T20:24:43;24.45;;;9.93;;
31836;SDS011;18401;49.344;6.240;2023-11-21T20:27:09;21.15;;;10.20;;
31836;SDS011;18401;49.344;6.240;2023-11-21T20:29:35;20.73;;;9.55;;
31836;SDS011;18401;49.344;6.240;2023-11-21T20:32:02;20.00;;;10.55;;
31836;SDS011;18401;49.344;6.240;2023-11-21T20:34:30;20.92;;;9.50;;
31836;SDS011;18401;49.344;6.240;2023-11-21T20:36:56;17.98;;;9.43;;
31836;SDS011;18401;49.344;6.240;2023-11-21T20:39:23;19.98;;;8.52;;
31836;SDS011;18401;49.344;6.240;2023-11-21T20:41:49;18.42;;;9.55;;
31836;SDS011;18401;49.344;6.240;2023-11-21T20:44:14;18.33;;;9.25;;
31836;SDS011;18401;49.344;6.240;2023-11-21T20:46:43;22.08;;;8.00;;
31836;SDS011;18401;49.344;6.240;2023-11-21T20:49:13;20.10;;;9.93;;
31836;SDS011;18401;49.344;6.240;2023-11-21T20:51:39;24.55;;;9.32;;
31836;SDS011;18401;49.344;6.240;2023-11-21T20:54:05;21.95;;;9.68;;
31836;SDS011;18401;49.344;6.240;2023-11-21T20:56:32;22.67;;;8.80;;
31836;SDS011;18401;49.344;6.240;2023-11-21T20:59:01;19.73;;;8.80;;
31836;SDS011;18401;49.344;6.240;2023-11-21T21:01:33;17.52;;;8.57;;
31836;SDS011;18401;49.344;6.240;2023-11-21T21:03:59;19.70;;;8.90;;
31836;SDS011;18401;49.344;6.240;2023-11-21T21:06:26;17.08;;;8.48;;
31836;SDS011;18401;49.344;6.240;2023-11-21T21:08:55;15.07;;;6.82;;
31836;SDS011;18401;49.344;6.240;2023-11-21T21:11:23;18.05;;;7.63;;
31836;SDS011;18401;49.344;6.240;2023-11-21T21:13:49;17.27;;;7.20;;
31836;SDS011;18401;49.344;6.240;2023-11-21T21:16:19;22.45;;;7.90;;
31836;SDS011;18401;49.344;6.240;2023-11-21T21:18:51;15.93;;;7.30;;
31836;SDS011;18401;49.344;6.240;2023-11-21T21:21:18;11.38;;;6.20;;
31836;SDS011;18401;49.344;6.240;2023-11-21T21:23:43;18.27;;;6.72;;
31836;SDS011;18401;49.344;6.240;2023-11-21T21:26:10;19.42;;;8.43;;
31836;SDS011;18401;49.344;6.240;2023-11-21T21:28:36;20.88;;;8.40;;
31836;SDS011;18401;49.344;6.240;2023-11-21T21:31:02;18.30;;;7.97;;
31836;SDS011;18401;49.344;6.240;2023-11-21T21:33:27;27.00;;;8.73;;
31836;SDS011;18401;49.344;6.240;2023-11-21T21:35:53;18.13;;;8.60;;
31836;SDS011;18401;49.344;6.240;2023-11-21T21:38:19;17.67;;;8.52;;
31836;SDS011;18401;49.344;6.240;2023-11-21T21:40:45;27.83;;;13.05;;
31836;SDS011;18401;49.344;6.240;2023-11-21T21:43:11;30.75;;;11.32;;
31836;SDS011;18401;49.344;6.240;2023-11-21T21:45:37;24.70;;;11.68;;
31836;SDS011;18401;49.344;6.240;2023-11-21T21:48:02;28.38;;;10.60;;
31836;SDS011;18401;49.344;6.240;2023-11-21T21:50:29;26.27;;;10.82;;
31836;SDS011;18401;49.344;6.240;2023-11-21T21:52:55;33.40;;;12.00;;
31836;SDS011;18401;49.344;6.240;2023-11-21T21:55:20;32.90;;;11.15;;
31836;SDS011;18401;49.344;6.240;2023-11-21T21:57:46;24.75;;;11.52;;
31836;SDS011;18401;49.344;6.240;2023-11-21T22:00:12;28.98;;;10.93;;
31836;SDS011;18401;49.344;6.240;2023-11-21T22:02:38;28.00;;;11.73;;
31836;SDS011;18401;49.344;6.240;2023-11-21T22:05:10;29.02;;;10.43;;
31836;SDS011;18401;49.344;6.240;2023-11-21T22:07:36;26.00;;;10.55;;
31836;SDS011;18401;49.344;6.240;2023-11-21T22:10:03;30.85;;;10.73;;
31836;SDS011;18401;49.344;6.240;2023-11-21T22:12:30;28.45;;;11.90;;
31836;SDS011;18401;49.344;6.240;2023-11-21T22:14:55;33.47;;;13.52;;
31836;SDS011;18401;49.344;6.240;2023-11-21T22:17:21;31.15;;;11.35;;
31836;SDS011;18401;49.344;6.240;2023-11-21T22:19:46;29.13;;;12.55;;
31836;SDS011;18401;49.344;6.240;2023-11-21T22:22:12;29.52;;;12.05;;
31836;SDS011;18401;49.344;6.240;2023-11-21T22:24:38;30.90;;;12.35;;
31836;SDS011;18401;49.344;6.240;2023-11-21T22:27:04;34.20;;;11.85;;
31836;SDS011;18401;49.344;6.240;2023-11-21T22:29:30;29.77;;;9.77;;
31836;SDS011;18401;49.344;6.240;2023-11-21T22:31:56;26.73;;;11.10;;
31836;SDS011;18401;49.344;6.240;2023-11-21T22:34:22;29.35;;;11.00;;
31836;SDS011;18401;49.344;6.240;2023-11-21T22:36:49;28.55;;;10.82;;
31836;SDS011;18401;49.344;6.240;2023-11-21T22:39:15;32.70;;;10.38;;
31836;SDS011;18401;49.344;6.240;2023-11-21T22:41:41;30.25;;;11.65;;
31836;SDS011;18401;49.344;6.240;2023-11-21T22:44:08;24.52;;;11.35;;
31836;SDS011;18401;49.344;6.240;2023-11-21T22:46:40;29.30;;;12.07;;
31836;SDS011;18401;49.344;6.240;2023-11-21T22:49:06;24.25;;;11.68;;
31836;SDS011;18401;49.344;6.240;2023-11-21T22:51:33;36.03;;;12.82;;
31836;SDS011;18401;49.344;6.240;2023-11-21T22:53:58;38.75;;;14.68;;
31836;SDS011;18401;49.344;6.240;2023-11-21T22:56:24;30.00;;;12.32;;
31836;SDS011;18401;49.344;6.240;2023-11-21T22:58:51;39.25;;;12.88;;
31836;SDS011;18401;49.344;6.240;2023-11-21T23:01:17;28.70;;;11.25;;
31836;SDS011;18401;49.344;6.240;2023-11-21T23:03:45;31.35;;;12.20;;
31836;SDS011;18401;49.344;6.240;2023-11-21T23:06:11;32.05;;;11.98;;
31836;SDS011;18401;49.344;6.240;2023-11-21T23:08:44;23.42;;;10.35;;
31836;SDS011;18401;49.344;6.240;2023-11-21T23:11:10;31.20;;;11.52;;
31836;SDS011;18401;49.344;6.240;2023-11-21T23:13:38;22.90;;;9.18;;
31836;SDS011;18401;49.344;6.240;2023-11-21T23:16:07;26.02;;;9.25;;
31836;SDS011;18401;49.344;6.240;2023-11-21T23:18:34;26.55;;;9.20;;
31836;SDS011;18401;49.344;6.240;2023-11-21T23:20:59;23.13;;;8.82;;
31836;SDS011;18401;49.344;6.240;2023-11-21T23:23:25;21.80;;;9.77;;
31836;SDS011;18401;49.344;6.240;2023-11-21T23:25:52;19.10;;;9.30;;
31836;SDS011;18401;49.344;6.240;2023-11-21T23:28:20;21.02;;;8.90;;
31836;SDS011;18401;49.344;6.240;2023-11-21T23:30:46;14.32;;;7.32;;
31836;SDS011;18401;49.344;6.240;2023-11-21T23:33:13;15.25;;;7.68;;
31836;SDS011;18401;49.344;6.240;2023-11-21T23:35:39;21.67;;;8.25;;
31836;SDS011;18401;49.344;6.240;2023-11-21T23:38:05;15.82;;;7.32;;
31836;SDS011;18401;49.344;6.240;2023-11-21T23:40:31;11.82;;;6.30;;
31836;SDS011;18401;49.344;6.240;2023-11-21T23:42:57;15.77;;;7.18;;
31836;SDS011;18401;49.344;6.240;2023-11-21T23:45:23;11.43;;;5.57;;
31836;SDS011;18401;49.344;6.240;2023-11-21T23:47:51;18.77;;;6.07;;
31836;SDS011;18401;49.344;6.240;2023-11-21T23:50:17;14.25;;;6.32;;
31836;SDS011;18401;49.344;6.240;2023-11-21T23:52:43;10.73;;;5.80;;
31836;SDS011;18401;49.344;6.240;2023-11-21T23:55:10;13.02;;;5.45;;
31836;SDS011;18401;49.344;6.240;2023-11-21T23:57:36;11.57;;;5.28;;
